createdAt,value
2018-02-17T00:01:28.759Z,102427.27
2018-02-17T00:03:58.925Z,102435.12
2018-02-17T00:06:28.094Z,102448.90
2018-02-17T00:08:57.241Z,102449.19
2018-02-17T00:11:26.374Z,102431.67
2018-02-17T00:13:55.278Z,102429.26
2018-02-17T00:16:24.441Z,102439.08
2018-02-17T00:18:53.887Z,102439.64
2018-02-17T00:21:23.136Z,102426.48
2018-02-17T00:23:52.375Z,102420.38
2018-02-17T00:26:21.801Z,102413.37
2018-02-17T00:28:51.080Z,102403.94
2018-02-17T00:31:20.417Z,102397.72
2018-02-17T00:33:50.046Z,102391.49
2018-02-17T00:36:19.721Z,102396.98
2018-02-17T00:38:49.226Z,102396.87
2018-02-17T00:41:18.446Z,102401.04
2018-02-17T00:43:47.828Z,102404.36
2018-02-17T00:46:16.893Z,102415.10
2018-02-17T00:48:46.110Z,102429.81
2018-02-17T00:51:15.533Z,102413.34
2018-02-17T00:53:44.592Z,102407.70
2018-02-17T00:56:13.512Z,102413.67
2018-02-17T00:58:42.994Z,102408.58
2018-02-17T01:01:12.965Z,102395.80
2018-02-17T01:03:42.352Z,102398.56
2018-02-17T01:06:11.668Z,102393.56
2018-02-17T01:08:40.842Z,102384.48
2018-02-17T01:11:09.982Z,102385.70
2018-02-17T01:13:39.832Z,102385.45
2018-02-17T01:16:09.059Z,102390.72
2018-02-17T01:18:38.199Z,102381.12
2018-02-17T01:21:07.867Z,102371.97
2018-02-17T01:23:36.974Z,102379.19
2018-02-17T01:26:06.577Z,102381.59
2018-02-17T01:28:35.529Z,102391.70
2018-02-17T01:31:04.737Z,102393.83
2018-02-17T01:33:33.871Z,102399.14
2018-02-17T01:36:03.375Z,102397.09
2018-02-17T01:38:32.865Z,102405.12
2018-02-17T01:41:01.718Z,102406.47
2018-02-17T01:43:30.797Z,102412.08
2018-02-17T01:45:59.873Z,102411.42
2018-02-17T01:48:29.138Z,102406.34
2018-02-17T01:50:58.514Z,102407.16
2018-02-17T01:53:27.596Z,102402.72
2018-02-17T01:55:56.690Z,102403.11
2018-02-17T01:58:25.994Z,102407.08
2018-02-17T02:00:55.115Z,102410.16
2018-02-17T02:03:23.977Z,102405.73
2018-02-17T02:05:53.250Z,102408.67
2018-02-17T02:08:22.551Z,102405.06
2018-02-17T02:10:51.832Z,102398.76
2018-02-17T02:13:21.243Z,102408.82
2018-02-17T02:15:50.424Z,102410.38
2018-02-17T02:18:19.587Z,102405.19
2018-02-17T02:20:48.856Z,102405.77
2018-02-17T02:23:18.185Z,102404.64
2018-02-17T02:25:47.408Z,102399.67
2018-02-17T02:28:16.723Z,102404.19
2018-02-17T02:30:45.818Z,102402.38
2018-02-17T02:33:15.151Z,102403.29
2018-02-17T02:35:44.555Z,102393.44
2018-02-17T02:38:13.990Z,102394.47
2018-02-17T02:40:43.367Z,102408.20
2018-02-17T02:43:12.632Z,102412.85
2018-02-17T02:45:41.648Z,102402.03
2018-02-17T02:48:11.098Z,102419.75
2018-02-17T02:50:40.541Z,102415.11
2018-02-17T02:53:10.082Z,102410.70
2018-02-17T02:55:39.165Z,102415.33
2018-02-17T02:58:08.457Z,102424.90
2018-02-17T03:00:37.760Z,102414.52
2018-02-17T03:03:07.062Z,102409.92
2018-02-17T03:05:36.169Z,102413.41
2018-02-17T03:08:05.655Z,102420.16
2018-02-17T03:10:35.137Z,102421.92
2018-02-17T03:13:04.502Z,102417.99
2018-02-17T03:15:33.757Z,102424.73
2018-02-17T03:18:02.902Z,102427.20
2018-02-17T03:20:32.278Z,102432.73
2018-02-17T03:23:02.077Z,102440.38
2018-02-17T03:25:31.825Z,102430.48
2018-02-17T03:28:00.945Z,102432.47
2018-02-17T03:30:30.207Z,102434.28
2018-02-17T03:32:59.589Z,102433.55
2018-02-17T03:35:30.801Z,102438.67
2018-02-17T03:38:00.723Z,102442.95
2018-02-17T03:40:29.649Z,102436.73
2018-02-17T03:42:58.621Z,102437.94
2018-02-17T03:45:27.818Z,102444.06
2018-02-17T03:47:56.964Z,102450.30
2018-02-17T03:50:26.079Z,102451.45
2018-02-17T03:52:55.081Z,102452.44
2018-02-17T03:55:24.111Z,102455.57
2018-02-17T03:57:53.232Z,102449.91
2018-02-17T04:00:22.921Z,102453.61
2018-02-17T04:02:52.278Z,102448.42
2018-02-17T04:05:21.621Z,102446.30
2018-02-17T04:07:50.665Z,102451.23
2018-02-17T04:10:19.928Z,102452.65
2018-02-17T04:12:49.024Z,102451.47
2018-02-17T04:15:18.315Z,102456.79
2018-02-17T04:17:47.509Z,102462.11
2018-02-17T04:20:16.844Z,102465.52
2018-02-17T04:22:46.195Z,102465.84
2018-02-17T04:25:15.443Z,102456.64
2018-02-17T04:27:44.880Z,102460.77
2018-02-17T04:30:14.202Z,102464.36
2018-02-17T04:32:43.241Z,102463.54
2018-02-17T04:35:12.609Z,102469.55
2018-02-17T04:37:41.998Z,102470.70
2018-02-17T04:40:21.490Z,102476.80
2018-02-17T04:42:51.460Z,102484.77
2018-02-17T04:45:21.390Z,102482.19
2018-02-17T04:50:58.767Z,102486.33
2018-02-17T04:53:28.105Z,102502.83
2018-02-17T04:59:16.262Z,102499.57
2018-02-17T05:01:47.603Z,102502.56
2018-02-17T05:04:19.590Z,102500.90
2018-02-17T05:06:51.251Z,102495.66
2018-02-17T05:09:20.346Z,102501.77
2018-02-17T05:11:49.562Z,102501.45
2018-02-17T05:14:19.213Z,102507.14
2018-02-17T05:16:51.270Z,102513.05
2018-02-17T05:22:39.032Z,102512.45
2018-02-17T05:25:11.188Z,102511.54
2018-02-17T05:27:41.997Z,102515.94
2018-02-17T05:30:12.417Z,102517.50
2018-02-17T05:32:44.397Z,102517.41
2018-02-17T05:35:14.754Z,102518.14
2018-02-17T05:37:44.155Z,102520.16
2018-02-17T05:40:25.123Z,102524.34
2018-02-17T05:42:54.757Z,102529.33
2018-02-17T05:45:24.156Z,102523.88
2018-02-17T05:47:58.869Z,102534.86
2018-02-17T05:50:28.577Z,102530.64
2018-02-17T05:52:58.172Z,102531.19
2018-02-17T05:55:27.700Z,102524.44
2018-02-17T05:57:56.847Z,102526.38
2018-02-17T06:00:26.190Z,102524.75
2018-02-17T06:02:55.730Z,102520.09
2018-02-17T06:05:24.986Z,102516.98
2018-02-17T06:07:54.392Z,102526.11
2018-02-17T06:10:23.421Z,102524.84
2018-02-17T06:12:52.590Z,102522.08
2018-02-17T06:15:22.001Z,102524.42
2018-02-17T06:17:51.157Z,102525.94
2018-02-17T06:20:20.198Z,102521.49
2018-02-17T06:22:49.405Z,102524.56
2018-02-17T06:25:18.620Z,102527.45
2018-02-17T06:27:47.961Z,102524.49
2018-02-17T06:30:17.377Z,102533.07
2018-02-17T06:32:46.661Z,102531.36
2018-02-17T06:35:16.081Z,102535.13
2018-02-17T06:37:45.602Z,102542.62
2018-02-17T06:40:14.964Z,102546.96
2018-02-17T06:42:43.920Z,102551.50
2018-02-17T06:45:13.194Z,102547.20
2018-02-17T06:47:42.282Z,102547.66
2018-02-17T06:50:11.558Z,102542.27
2018-02-17T06:52:40.979Z,102541.89
2018-02-17T06:55:10.373Z,102543.39
2018-02-17T06:57:39.263Z,102548.81
2018-02-17T07:00:08.331Z,102554.48
2018-02-17T07:02:37.435Z,102560.62
2018-02-17T07:05:06.684Z,102553.83
2018-02-17T07:07:35.645Z,102557.52
2018-02-17T07:10:05.009Z,102551.45
2018-02-17T07:12:34.300Z,102553.95
2018-02-17T07:15:03.218Z,102557.43
2018-02-17T07:17:32.304Z,102566.24
2018-02-17T07:20:01.557Z,102563.23
2018-02-17T07:22:30.630Z,102562.44
2018-02-17T07:24:59.938Z,102562.09
2018-02-17T07:27:29.059Z,102560.77
2018-02-17T07:29:57.988Z,102550.11
2018-02-17T07:32:26.956Z,102548.63
2018-02-17T07:34:55.998Z,102552.06
2018-02-17T07:37:25.022Z,102557.20
2018-02-17T07:39:54.273Z,102557.22
2018-02-17T07:42:23.479Z,102545.77
2018-02-17T07:44:52.813Z,102548.05
2018-02-17T07:47:21.952Z,102546.92
2018-02-17T07:49:51.207Z,102548.34
2018-02-17T07:52:20.249Z,102550.17
2018-02-17T07:54:49.266Z,102547.31
2018-02-17T07:57:18.286Z,102536.16
2018-02-17T07:59:47.381Z,102532.98
2018-02-17T08:02:16.735Z,102536.09
2018-02-17T08:04:45.700Z,102538.42
2018-02-17T08:07:14.772Z,102534.50
2018-02-17T08:09:44.145Z,102528.47
2018-02-17T08:12:13.145Z,102523.61
2018-02-17T08:14:42.480Z,102532.20
2018-02-17T08:17:11.454Z,102526.42
2018-02-17T08:19:40.512Z,102523.74
2018-02-17T08:22:09.849Z,102529.27
2018-02-17T08:24:38.993Z,102529.82
2018-02-17T08:27:08.066Z,102531.52
2018-02-17T08:29:37.381Z,102530.61
2018-02-17T08:32:06.373Z,102526.68
2018-02-17T08:34:35.377Z,102527.95
2018-02-17T08:37:04.499Z,102525.80
2018-02-17T08:39:33.933Z,102520.29
2018-02-17T08:42:03.298Z,102515.20
2018-02-17T08:44:32.481Z,102516.89
2018-02-17T08:47:01.669Z,102518.18
2018-02-17T08:49:30.943Z,102514.83
2018-02-17T08:51:59.970Z,102504.72
2018-02-17T08:54:29.094Z,102501.02
2018-02-17T08:56:58.126Z,102501.78
2018-02-17T08:59:27.275Z,102501.20
2018-02-17T09:01:56.277Z,102500.09
2018-02-17T09:04:25.342Z,102490.56
2018-02-17T09:06:54.357Z,102485.30
2018-02-17T09:09:23.529Z,102484.25
2018-02-17T09:11:53.027Z,102483.85
2018-02-17T09:14:22.286Z,102480.23
2018-02-17T09:16:51.430Z,102470.57
2018-02-17T09:19:20.671Z,102477.78
2018-02-17T09:21:49.612Z,102470.81
2018-02-17T09:24:19.554Z,102460.56
2018-02-17T09:26:48.916Z,102460.66
2018-02-17T09:29:18.123Z,102454.48
2018-02-17T09:31:47.233Z,102445.73
2018-02-17T09:34:16.462Z,102447.25
2018-02-17T09:36:46.011Z,102441.53
2018-02-17T09:39:15.549Z,102438.75
2018-02-17T09:41:44.911Z,102430.33
2018-02-17T09:44:14.128Z,102429.08
2018-02-17T09:46:43.514Z,102420.77
2018-02-17T09:49:12.789Z,102408.89
2018-02-17T09:51:42.002Z,102409.69
2018-02-17T09:54:11.406Z,102401.38
2018-02-17T09:56:40.607Z,102403.28
2018-02-17T09:59:09.813Z,102393.65
2018-02-17T10:01:39.187Z,102390.48
2018-02-17T10:04:08.532Z,102395.31
2018-02-17T10:06:38.533Z,102391.59
2018-02-17T10:09:07.748Z,102381.09
2018-02-17T10:11:37.174Z,102379.63
2018-02-17T10:14:06.444Z,102387.44
2018-02-17T10:16:35.737Z,102378.84
2018-02-17T10:19:05.248Z,102384.83
2018-02-17T10:21:34.646Z,102376.84
2018-02-17T10:24:03.814Z,102365.62
2018-02-17T10:26:33.253Z,102364.12
2018-02-17T10:29:02.519Z,102361.28
2018-02-17T10:31:31.837Z,102361.94
2018-02-17T10:34:01.186Z,102362.91
2018-02-17T10:36:30.630Z,102353.22
2018-02-17T10:38:59.798Z,102352.40
2018-02-17T10:41:28.982Z,102352.88
2018-02-17T10:43:58.256Z,102326.60
2018-02-17T10:46:27.506Z,102336.87
2018-02-17T10:48:56.929Z,102332.51
2018-02-17T10:51:25.994Z,102341.24
2018-02-17T10:53:55.664Z,102336.96
2018-02-17T10:56:24.793Z,102340.02
2018-02-17T10:58:53.956Z,102322.46
2018-02-17T11:01:23.477Z,102335.55
2018-02-17T11:03:53.075Z,102324.48
2018-02-17T11:06:22.122Z,102336.95
2018-02-17T11:08:51.299Z,102326.25
2018-02-17T11:11:20.561Z,102317.52
2018-02-17T11:13:49.651Z,102316.52
2018-02-17T11:16:18.853Z,102303.91
2018-02-17T11:18:48.363Z,102313.19
2018-02-17T11:21:17.454Z,102312.33
2018-02-17T11:23:46.814Z,102297.28
2018-02-17T11:26:15.893Z,102311.14
2018-02-17T11:28:45.097Z,102285.95
2018-02-17T11:31:14.628Z,102282.17
2018-02-17T11:33:43.797Z,102291.59
2018-02-17T11:36:13.335Z,102295.02
2018-02-17T11:38:42.502Z,102293.53
2018-02-17T11:41:11.797Z,102286.61
2018-02-17T11:43:41.034Z,102295.00
2018-02-17T11:46:10.587Z,102309.58
2018-02-17T11:48:40.800Z,102280.64
2018-02-17T11:51:10.412Z,102305.19
2018-02-17T11:53:39.696Z,102262.91
2018-02-17T11:56:09.428Z,102287.72
2018-02-17T11:58:39.026Z,102265.88
2018-02-17T12:01:08.415Z,102290.45
2018-02-17T12:03:37.950Z,102280.61
2018-02-17T12:06:07.164Z,102268.71
2018-02-17T12:08:36.334Z,102279.12
2018-02-17T12:11:05.693Z,102291.66
2018-02-17T12:13:34.983Z,102287.28
2018-02-17T12:16:04.318Z,102286.11
2018-02-17T12:18:33.556Z,102311.44
2018-02-17T12:21:02.837Z,102288.43
2018-02-17T12:23:32.376Z,102286.33
2018-02-17T12:26:01.791Z,102283.26
2018-02-17T12:28:30.971Z,102285.77
2018-02-17T12:31:00.640Z,102288.86
2018-02-17T12:33:29.882Z,102281.02
2018-02-17T12:35:59.071Z,102281.58
2018-02-17T12:38:28.239Z,102280.11
2018-02-17T12:40:57.715Z,102277.01
2018-02-17T12:43:27.087Z,102275.60
2018-02-17T12:45:56.063Z,102278.30
2018-02-17T12:48:25.261Z,102271.17
2018-02-17T12:50:54.328Z,102273.78
2018-02-17T12:53:23.682Z,102274.39
2018-02-17T12:55:52.767Z,102273.72
2018-02-17T12:58:22.097Z,102268.37
2018-02-17T13:00:51.422Z,102267.91
2018-02-17T13:03:20.332Z,102274.54
2018-02-17T13:05:49.620Z,102279.09
2018-02-17T13:08:19.055Z,102281.51
2018-02-17T13:10:48.746Z,102284.62
2018-02-17T13:13:18.063Z,102284.25
2018-02-17T13:15:46.945Z,102283.09
2018-02-17T13:18:16.244Z,102285.64
2018-02-17T13:20:45.314Z,102280.61
2018-02-17T13:23:14.734Z,102295.04
2018-02-17T13:25:44.235Z,102304.25
2018-02-17T13:28:25.107Z,102322.03
2018-02-17T13:30:54.096Z,102289.92
2018-02-17T13:33:23.332Z,102272.48
2018-02-17T13:35:52.554Z,102285.69
2018-02-17T13:38:21.565Z,102293.36
2018-02-17T13:40:51.206Z,102296.70
2018-02-17T13:43:20.375Z,102294.22
2018-02-17T13:45:49.537Z,102292.46
2018-02-17T13:48:18.774Z,102290.03
2018-02-17T13:50:48.466Z,102288.52
2018-02-17T13:53:17.890Z,102280.40
2018-02-17T13:55:47.155Z,102281.06
2018-02-17T13:58:16.618Z,102278.25
2018-02-17T14:00:46.059Z,102280.98
2018-02-17T14:03:15.734Z,102274.04
2018-02-17T14:05:45.231Z,102268.10
2018-02-17T14:08:14.365Z,102270.32
2018-02-17T14:10:43.731Z,102272.80
2018-02-17T14:13:13.069Z,102265.84
2018-02-17T14:15:42.271Z,102264.98
2018-02-17T14:18:11.574Z,102270.78
2018-02-17T14:20:40.984Z,102262.02
2018-02-17T14:23:10.204Z,102267.34
2018-02-17T14:25:39.652Z,102267.38
2018-02-17T14:28:09.109Z,102261.85
2018-02-17T14:30:38.552Z,102263.48
2018-02-17T14:33:07.758Z,102265.04
2018-02-17T14:35:37.062Z,102268.19
2018-02-17T14:38:06.352Z,102264.52
2018-02-17T14:40:35.386Z,102269.20
2018-02-17T14:43:04.711Z,102267.26
2018-02-17T14:45:34.248Z,102273.67
2018-02-17T14:48:03.322Z,102272.72
2018-02-17T14:50:32.862Z,102276.94
2018-02-17T14:53:02.503Z,102278.91
2018-02-17T14:55:31.975Z,102271.27
2018-02-17T14:58:01.358Z,102272.50
2018-02-17T15:00:30.783Z,102265.73
2018-02-17T15:03:00.014Z,102260.56
2018-02-17T15:05:29.512Z,102262.45
2018-02-17T15:07:58.687Z,102256.33
2018-02-17T15:10:27.653Z,102263.28
2018-02-17T15:12:56.855Z,102268.84
2018-02-17T15:15:25.886Z,102280.87
2018-02-17T15:17:55.098Z,102268.38
2018-02-17T15:20:24.575Z,102277.95
2018-02-17T15:22:53.963Z,102271.91
2018-02-17T15:25:23.182Z,102273.86
2018-02-17T15:27:52.449Z,102282.34
2018-02-17T15:30:21.772Z,102286.14
2018-02-17T15:32:50.795Z,102276.61
2018-02-17T15:35:19.925Z,102281.82
2018-02-17T15:37:48.895Z,102287.13
2018-02-17T15:40:18.103Z,102282.00
2018-02-17T15:42:47.580Z,102283.84
2018-02-17T15:45:16.839Z,102286.15
2018-02-17T15:47:46.370Z,102290.00
2018-02-17T15:50:15.310Z,102290.89
2018-02-17T15:52:44.259Z,102282.95
2018-02-17T15:55:13.439Z,102283.80
2018-02-17T15:57:42.741Z,102289.12
2018-02-17T16:00:11.973Z,102293.08
2018-02-17T16:02:41.599Z,102290.96
2018-02-17T16:05:10.965Z,102295.77
2018-02-17T16:07:40.035Z,102293.79
2018-02-17T16:10:09.431Z,102289.74
2018-02-17T16:12:38.495Z,102290.05
2018-02-17T16:15:07.921Z,102293.34
2018-02-17T16:17:37.599Z,102290.00
2018-02-17T16:20:07.168Z,102289.98
2018-02-17T16:22:36.668Z,102298.44
2018-02-17T16:25:06.115Z,102303.63
2018-02-17T16:27:35.436Z,102311.46
2018-02-17T16:30:04.534Z,102315.16
2018-02-17T16:32:33.738Z,102316.79
2018-02-17T16:35:02.743Z,102320.31
2018-02-17T16:37:31.735Z,102323.09
2018-02-17T16:40:00.795Z,102326.36
2018-02-17T16:42:29.988Z,102320.90
2018-02-17T16:44:59.459Z,102326.19
2018-02-17T16:47:28.715Z,102324.06
2018-02-17T16:49:57.698Z,102318.89
2018-02-17T16:52:26.742Z,102319.33
2018-02-17T16:54:55.899Z,102329.99
2018-02-17T16:57:24.964Z,102314.24
2018-02-17T16:59:54.118Z,102321.03
2018-02-17T17:02:23.305Z,102321.70
2018-02-17T17:04:52.746Z,102318.33
2018-02-17T17:07:21.830Z,102316.25
2018-02-17T17:09:50.744Z,102313.69
2018-02-17T17:12:20.135Z,102317.05
2018-02-17T17:14:49.385Z,102313.48
2018-02-17T17:17:18.593Z,102311.93
2018-02-17T17:19:47.593Z,102311.32
2018-02-17T17:22:16.486Z,102308.69
2018-02-17T17:24:45.724Z,102308.73
2018-02-17T17:27:14.711Z,102310.69
2018-02-17T17:29:43.776Z,102311.16
2018-02-17T17:32:12.896Z,102300.95
2018-02-17T17:34:41.921Z,102308.30
2018-02-17T17:37:11.242Z,102304.90
2018-02-17T17:39:40.260Z,102305.98
2018-02-17T17:42:10.133Z,102306.48
2018-02-17T17:44:39.195Z,102308.27
2018-02-17T17:47:08.406Z,102320.75
2018-02-17T17:49:37.341Z,102322.82
2018-02-17T17:52:06.295Z,102314.37
2018-02-17T17:54:35.177Z,102315.22
2018-02-17T17:57:04.540Z,102314.53
2018-02-17T17:59:33.403Z,102307.42
2018-02-17T18:02:02.282Z,102307.13
2018-02-17T18:04:31.710Z,102314.85
2018-02-17T18:07:00.844Z,102315.67
2018-02-17T18:09:29.882Z,102314.34
2018-02-17T18:11:59.064Z,102315.61
2018-02-17T18:14:28.525Z,102310.78
2018-02-17T18:16:57.558Z,102323.72
2018-02-17T18:19:26.706Z,102328.55
2018-02-17T18:21:55.921Z,102333.31
2018-02-17T18:24:24.879Z,102327.22
2018-02-17T18:26:53.973Z,102321.25
2018-02-17T18:29:23.021Z,102323.83
2018-02-17T18:31:52.423Z,102315.70
2018-02-17T18:34:21.478Z,102314.70
2018-02-17T18:36:50.470Z,102308.16
2018-02-17T18:39:19.591Z,102306.59
2018-02-17T18:41:48.829Z,102308.49
2018-02-17T18:44:17.897Z,102309.88
2018-02-17T18:46:47.354Z,102309.05
2018-02-17T18:49:16.410Z,102313.30
2018-02-17T18:51:45.566Z,102310.48
2018-02-17T18:54:14.558Z,102320.54
2018-02-17T18:56:43.680Z,102323.12
2018-02-17T18:59:12.823Z,102326.52
2018-02-17T19:01:42.132Z,102328.78
2018-02-17T19:04:11.466Z,102316.38
2018-02-17T19:06:40.378Z,102311.75
2018-02-17T19:09:10.019Z,102309.50
2018-02-17T19:11:39.301Z,102313.79
2018-02-17T19:14:08.441Z,102306.23
2018-02-17T19:16:37.679Z,102312.67
2018-02-17T19:19:06.559Z,102313.23
2018-02-17T19:21:35.478Z,102311.18
2018-02-17T19:24:04.738Z,102313.32
2018-02-17T19:26:33.855Z,102317.07
2018-02-17T19:29:03.125Z,102315.13
2018-02-17T19:31:32.426Z,102318.31
2018-02-17T19:34:01.742Z,102317.50
2018-02-17T19:36:30.833Z,102315.71
2018-02-17T19:38:59.697Z,102317.95
2018-02-17T19:41:29.007Z,102317.86
2018-02-17T19:43:58.006Z,102317.28
2018-02-17T19:46:27.195Z,102316.52
2018-02-17T19:48:56.193Z,102315.38
2018-02-17T19:51:25.330Z,102319.69
2018-02-17T19:53:54.354Z,102321.48
2018-02-17T19:56:23.551Z,102313.70
2018-02-17T19:58:52.790Z,102317.97
2018-02-17T20:01:22.433Z,102318.09
2018-02-17T20:03:51.607Z,102313.02
2018-02-17T20:06:21.062Z,102317.75
2018-02-17T20:08:50.335Z,102322.94
2018-02-17T20:11:19.535Z,102316.86
2018-02-17T20:13:48.796Z,102306.83
2018-02-17T20:16:18.022Z,102308.49
2018-02-17T20:18:47.335Z,102309.07
2018-02-17T20:21:16.344Z,102309.73
2018-02-17T20:23:45.448Z,102306.48
2018-02-17T20:26:14.647Z,102304.41
2018-02-17T20:28:44.032Z,102307.91
2018-02-17T20:31:13.380Z,102305.59
2018-02-17T20:33:42.599Z,102304.67
2018-02-17T20:36:12.030Z,102304.10
2018-02-17T20:38:41.054Z,102296.91
2018-02-17T20:41:10.234Z,102304.32
2018-02-17T20:43:39.246Z,102303.90
2018-02-17T20:46:08.400Z,102308.52
2018-02-17T20:48:37.665Z,102306.36
2018-02-17T20:51:07.031Z,102300.16
2018-02-17T20:53:35.899Z,102301.84
2018-02-17T20:56:04.769Z,102295.53
2018-02-17T20:58:34.149Z,102296.68
2018-02-17T21:01:03.462Z,102288.98
2018-02-17T21:03:32.619Z,102287.64
2018-02-17T21:06:02.522Z,102287.55
2018-02-17T21:08:31.638Z,102295.20
2018-02-17T21:11:00.913Z,102300.27
2018-02-17T21:13:29.854Z,102295.30
2018-02-17T21:15:59.003Z,102300.42
2018-02-17T21:18:28.022Z,102297.75
2018-02-17T21:20:57.228Z,102306.80
2018-02-17T21:23:26.322Z,102302.50
2018-02-17T21:25:55.383Z,102302.74
2018-02-17T21:28:24.365Z,102300.69
2018-02-17T21:30:53.392Z,102298.06
2018-02-17T21:33:22.515Z,102293.89
2018-02-17T21:35:52.023Z,102290.14
2018-02-17T21:38:21.479Z,102293.43
2018-02-17T21:40:50.768Z,102286.66
2018-02-17T21:43:19.819Z,102290.26
2018-02-17T21:45:48.955Z,102292.15
2018-02-17T21:48:18.027Z,102292.38
2018-02-17T21:50:47.398Z,102288.22
2018-02-17T21:53:16.495Z,102288.67
2018-02-17T21:55:45.354Z,102281.85
2018-02-17T21:58:14.459Z,102286.83
2018-02-17T22:00:43.518Z,102287.42
2018-02-17T22:03:12.582Z,102292.83
2018-02-17T22:05:41.779Z,102280.94
2018-02-17T22:08:10.782Z,102284.06
2018-02-17T22:10:39.758Z,102277.30
2018-02-17T22:13:08.630Z,102276.77
2018-02-17T22:15:37.754Z,102271.80
2018-02-17T22:18:06.982Z,102271.37
2018-02-17T22:20:35.838Z,102270.27
2018-02-17T22:23:04.982Z,102267.66
2018-02-17T22:25:34.183Z,102272.95
2018-02-17T22:28:03.601Z,102266.92
2018-02-17T22:30:32.470Z,102263.52
2018-02-17T22:33:01.395Z,102259.13
2018-02-17T22:35:30.464Z,102248.74
2018-02-17T22:37:59.671Z,102242.97
2018-02-17T22:40:28.875Z,102249.48
2018-02-17T22:42:57.932Z,102247.59
2018-02-17T22:45:27.252Z,102242.96
2018-02-17T22:47:56.499Z,102248.03
2018-02-17T22:50:25.771Z,102246.88
2018-02-17T22:52:55.171Z,102250.64
2018-02-17T22:55:24.299Z,102255.81
2018-02-17T22:57:53.494Z,102248.14
2018-02-17T23:00:31.261Z,102243.87
2018-02-17T23:03:00.336Z,102248.16
2018-02-17T23:05:29.719Z,102247.83
2018-02-17T23:07:59.360Z,102251.59
2018-02-17T23:10:28.637Z,102252.84
2018-02-17T23:12:57.878Z,102246.16
2018-02-17T23:15:27.462Z,102251.95
2018-02-17T23:17:56.985Z,102245.63
2018-02-17T23:20:26.286Z,102247.55
2018-02-17T23:22:55.704Z,102246.06
2018-02-17T23:25:24.986Z,102248.78
2018-02-17T23:27:54.594Z,102253.53
2018-02-17T23:30:23.558Z,102246.08
2018-02-17T23:32:52.539Z,102237.72
2018-02-17T23:35:21.497Z,102234.33
2018-02-17T23:37:51.124Z,102237.48
2018-02-17T23:40:20.513Z,102237.59
2018-02-17T23:42:49.746Z,102237.17
2018-02-17T23:45:18.618Z,102234.22
2018-02-17T23:47:48.002Z,102230.98
2018-02-17T23:50:17.082Z,102239.21
2018-02-17T23:52:46.098Z,102239.89
2018-02-17T23:55:15.573Z,102234.02
2018-02-17T23:57:44.614Z,102240.09
